createdAt,value
2023-05-10T00:01:37.230Z,100.00
2023-05-10T00:04:04.241Z,100.00
2023-05-10T00:06:31.321Z,100.00
2023-05-10T00:08:58.137Z,100.00
2023-05-10T00:11:25.123Z,100.00
2023-05-10T00:13:51.867Z,100.00
2023-05-10T00:16:18.737Z,100.00
2023-05-10T00:18:45.570Z,100.00
2023-05-10T00:21:12.234Z,100.00
2023-05-10T00:23:39.755Z,100.00
2023-05-10T00:26:06.428Z,100.00
2023-05-10T00:28:33.108Z,100.00
2023-05-10T00:30:59.940Z,100.00
2023-05-10T00:33:26.734Z,100.00
2023-05-10T00:35:53.621Z,100.00
2023-05-10T00:38:20.308Z,100.00
2023-05-10T00:40:47.120Z,100.00
2023-05-10T00:43:21.825Z,100.00
2023-05-10T00:45:48.591Z,100.00
2023-05-10T00:48:15.471Z,100.00
2023-05-10T00:50:42.577Z,100.00
2023-05-10T00:53:10.163Z,100.00
2023-05-10T00:55:37.141Z,100.00
2023-05-10T00:58:04.073Z,100.00
2023-05-10T01:00:31.134Z,100.00
2023-05-10T01:02:58.326Z,100.00
2023-05-10T01:05:25.833Z,100.00
2023-05-10T01:07:52.616Z,100.00
2023-05-10T01:10:19.604Z,100.00
2023-05-10T01:12:47.784Z,100.00
2023-05-10T01:15:16.981Z,100.00
2023-05-10T01:17:48.595Z,100.00
2023-05-10T01:20:16.475Z,100.00
2023-05-10T01:22:43.238Z,100.00
2023-05-10T01:25:38.842Z,100.00
2023-05-10T01:28:33.430Z,100.00
2023-05-10T01:31:45.194Z,100.00
2023-05-10T01:34:21.846Z,100.00
2023-05-10T01:37:08.495Z,100.00
2023-05-10T01:40:16.363Z,100.00
2023-05-10T01:42:59.413Z,100.00
2023-05-10T01:45:32.914Z,100.00
2023-05-10T01:48:12.260Z,100.00
2023-05-10T01:50:43.025Z,100.00
2023-05-10T01:53:13.940Z,100.00
2023-05-10T01:55:56.205Z,100.00
2023-05-10T01:58:32.797Z,100.00
2023-05-10T02:01:02.542Z,100.00
2023-05-10T02:03:31.469Z,100.00
2023-05-10T02:05:59.982Z,100.00
2023-05-10T02:08:27.962Z,100.00
2023-05-10T02:10:59.619Z,100.00
2023-05-10T02:13:28.369Z,100.00
2023-05-10T02:15:56.665Z,100.00
2023-05-10T02:18:24.986Z,100.00
2023-05-10T02:20:54.813Z,100.00
2023-05-10T02:23:22.635Z,100.00
2023-05-10T02:25:51.007Z,100.00
2023-05-10T02:28:19.119Z,100.00
2023-05-10T02:30:47.981Z,100.00
2023-05-10T02:33:15.602Z,100.00
2023-05-10T02:35:42.770Z,100.00
2023-05-10T02:38:11.238Z,100.00
2023-05-10T02:40:38.968Z,100.00
2023-05-10T02:43:10.243Z,100.00
2023-05-10T02:45:39.895Z,100.00
2023-05-10T02:48:07.134Z,100.00
2023-05-10T02:50:35.012Z,100.00
2023-05-10T02:53:04.881Z,100.00
2023-05-10T02:55:36.479Z,100.00
2023-05-10T02:58:04.747Z,100.00
2023-05-10T03:00:31.819Z,100.00
2023-05-10T03:02:58.776Z,100.00
2023-05-10T03:05:26.371Z,100.00
2023-05-10T03:07:54.070Z,100.00
2023-05-10T03:10:27.821Z,100.00
2023-05-10T03:13:30.424Z,100.00
2023-05-10T03:16:05.579Z,100.00
2023-05-10T03:18:43.023Z,100.00
2023-05-10T03:21:13.567Z,100.00
2023-05-10T03:23:51.688Z,100.00
2023-05-10T03:26:24.668Z,100.00
2023-05-10T03:28:54.301Z,100.00
2023-05-10T03:31:22.004Z,100.00
2023-05-10T03:33:49.790Z,100.00
2023-05-10T03:36:21.993Z,100.00
2023-05-10T03:38:48.821Z,100.00
2023-05-10T03:41:16.218Z,100.00
2023-05-10T03:43:42.953Z,100.00
2023-05-10T03:46:09.589Z,100.00
2023-05-10T03:48:36.499Z,100.00
2023-05-10T03:51:03.221Z,100.00
2023-05-10T03:53:30.296Z,100.00
2023-05-10T03:55:56.964Z,100.00
2023-05-10T03:58:24.842Z,100.00
2023-05-10T04:00:52.822Z,100.00
2023-05-10T04:03:19.758Z,100.00
2023-05-10T04:05:46.529Z,100.00
2023-05-10T04:08:13.223Z,100.00
2023-05-10T04:10:40.752Z,100.00
2023-05-10T04:13:07.502Z,100.00
2023-05-10T04:15:34.238Z,100.00
2023-05-10T04:18:01.249Z,100.00
2023-05-10T04:20:27.920Z,100.00
2023-05-10T04:22:54.795Z,100.00
2023-05-10T04:25:21.662Z,100.00
2023-05-10T04:27:48.402Z,100.00
2023-05-10T04:30:15.402Z,100.00
2023-05-10T04:32:42.369Z,100.00
2023-05-10T04:35:11.062Z,100.00
2023-05-10T04:37:37.880Z,100.00
2023-05-10T04:40:05.134Z,100.00
2023-05-10T04:42:31.851Z,100.00
2023-05-10T04:44:58.498Z,100.00
2023-05-10T04:47:25.196Z,100.00
2023-05-10T04:49:51.946Z,100.00
2023-05-10T04:52:18.948Z,100.00
2023-05-10T04:54:45.630Z,100.00
2023-05-10T04:57:12.400Z,100.00
2023-05-10T04:59:39.084Z,100.00
2023-05-10T05:02:06.460Z,100.00
2023-05-10T05:04:33.284Z,100.00
2023-05-10T05:07:00.117Z,100.00
2023-05-10T05:09:26.827Z,100.00
2023-05-10T05:11:53.457Z,100.00
2023-05-10T05:14:21.958Z,100.00
2023-05-10T05:16:48.779Z,100.00
2023-05-10T05:19:15.477Z,100.00
2023-05-10T05:21:42.242Z,100.00
2023-05-10T05:24:09.625Z,100.00
2023-05-10T05:26:36.324Z,100.00
2023-05-10T05:29:03.275Z,100.00
2023-05-10T05:31:30.163Z,100.00
2023-05-10T05:33:56.939Z,100.00
2023-05-10T05:36:23.775Z,100.00
2023-05-10T05:38:50.616Z,100.00
2023-05-10T05:41:17.324Z,100.00
2023-05-10T05:43:43.934Z,100.00
2023-05-10T05:46:10.782Z,100.00
2023-05-10T05:48:37.487Z,100.00
2023-05-10T05:51:06.543Z,100.00
2023-05-10T05:53:33.916Z,100.00
2023-05-10T05:56:00.693Z,100.00
2023-05-10T05:58:27.881Z,100.00
2023-05-10T06:00:55.034Z,100.00
2023-05-10T06:03:21.891Z,100.00
2023-05-10T06:05:49.123Z,100.00
2023-05-10T06:08:15.983Z,100.00
2023-05-10T06:10:42.667Z,100.00
2023-05-10T06:13:09.550Z,100.00
2023-05-10T06:15:36.457Z,100.00
2023-05-10T06:18:03.211Z,100.00
2023-05-10T06:20:29.942Z,100.00
2023-05-10T06:22:56.665Z,100.00
2023-05-10T06:25:23.282Z,100.00
2023-05-10T06:27:52.920Z,100.00
2023-05-10T06:30:21.263Z,100.00
2023-05-10T06:32:48.055Z,100.00
2023-05-10T06:35:14.888Z,100.00
2023-05-10T06:37:42.007Z,100.00
2023-05-10T06:40:09.175Z,100.00
2023-05-10T06:42:35.878Z,100.00
2023-05-10T06:45:03.463Z,100.00
2023-05-10T06:47:30.254Z,100.00
2023-05-10T06:49:57.077Z,100.00
2023-05-10T06:52:24.413Z,100.00
2023-05-10T06:54:51.409Z,100.00
2023-05-10T06:57:30.598Z,100.00
2023-05-10T06:59:59.189Z,100.00
2023-05-10T07:02:25.965Z,100.00
2023-05-10T07:04:53.168Z,100.00
2023-05-10T07:07:20.092Z,100.00
2023-05-10T07:09:46.874Z,100.00
2023-05-10T07:12:15.039Z,100.00
2023-05-10T07:14:42.829Z,100.00
2023-05-10T07:17:09.895Z,100.00
2023-05-10T07:19:36.980Z,100.00
2023-05-10T07:22:04.112Z,100.00
2023-05-10T07:24:32.288Z,100.00
2023-05-10T07:26:59.097Z,100.00
2023-05-10T07:29:26.237Z,100.00
2023-05-10T07:31:53.070Z,100.00
2023-05-10T07:34:19.899Z,100.00
2023-05-10T07:36:46.787Z,100.00
2023-05-10T07:39:18.645Z,100.00
2023-05-10T07:41:51.448Z,100.00
2023-05-10T07:44:20.154Z,99.09
2023-05-10T07:46:47.618Z,98.28
2023-05-10T07:49:14.480Z,98.38
2023-05-10T07:51:41.285Z,99.45
2023-05-10T07:54:07.901Z,99.68
2023-05-10T07:56:35.563Z,100.00
2023-05-10T07:59:04.949Z,100.00
2023-05-10T08:01:33.456Z,100.00
2023-05-10T08:04:00.253Z,99.10
2023-05-10T08:06:31.026Z,97.26
2023-05-10T08:08:58.422Z,98.05
2023-05-10T08:11:25.902Z,97.91
2023-05-10T08:13:52.929Z,96.83
2023-05-10T08:16:19.894Z,96.49
2023-05-10T08:18:48.011Z,96.28
2023-05-10T08:21:15.925Z,96.03
2023-05-10T08:23:44.711Z,95.92
2023-05-10T08:26:11.824Z,97.98
2023-05-10T08:28:38.619Z,98.78
2023-05-10T08:31:06.200Z,98.32
2023-05-10T08:33:33.086Z,97.94
2023-05-10T08:35:59.876Z,97.33
2023-05-10T08:38:26.991Z,98.43
2023-05-10T08:40:59.777Z,97.55
2023-05-10T08:43:31.047Z,97.50
2023-05-10T08:46:02.188Z,97.03
2023-05-10T08:48:31.141Z,95.69
2023-05-10T08:51:00.380Z,95.77
2023-05-10T08:53:28.259Z,95.15
2023-05-10T08:55:55.060Z,94.26
2023-05-10T08:58:21.898Z,92.21
2023-05-10T09:00:51.914Z,91.62
2023-05-10T09:03:18.972Z,91.25
2023-05-10T09:05:46.160Z,90.28
2023-05-10T09:08:14.474Z,89.05
2023-05-10T09:10:43.277Z,85.80
2023-05-10T09:13:11.842Z,86.66
2023-05-10T09:15:39.750Z,87.35
2023-05-10T09:18:06.517Z,83.75
2023-05-10T09:20:33.316Z,84.38
2023-05-10T09:22:59.980Z,84.13
2023-05-10T09:25:26.667Z,81.29
2023-05-10T09:27:53.786Z,80.05
2023-05-10T09:30:28.653Z,78.11
2023-05-10T09:32:56.492Z,79.30
2023-05-10T09:35:25.899Z,78.68
2023-05-10T09:37:56.061Z,76.82
2023-05-10T09:40:24.627Z,79.42
2023-05-10T09:43:01.626Z,80.47
2023-05-10T09:45:30.537Z,79.39
2023-05-10T09:47:58.262Z,81.80
2023-05-10T09:50:25.290Z,79.86
2023-05-10T09:52:56.226Z,80.30
2023-05-10T09:55:26.308Z,80.74
2023-05-10T09:58:03.363Z,83.03
2023-05-10T10:00:37.049Z,82.94
2023-05-10T10:03:04.694Z,80.46
2023-05-10T10:05:32.969Z,82.39
2023-05-10T10:08:00.187Z,84.23
2023-05-10T10:10:28.282Z,85.19
2023-05-10T10:12:55.666Z,87.24
2023-05-10T10:15:23.538Z,85.84
2023-05-10T10:17:50.893Z,85.39
2023-05-10T10:20:18.900Z,86.43
2023-05-10T10:22:46.771Z,85.88
2023-05-10T10:25:17.893Z,86.13
2023-05-10T10:27:53.667Z,85.46
2023-05-10T10:30:23.450Z,84.61
2023-05-10T10:32:59.390Z,85.04
2023-05-10T10:35:26.298Z,85.97
2023-05-10T10:37:52.974Z,86.97
2023-05-10T10:40:26.790Z,88.61
2023-05-10T10:42:54.731Z,88.92
2023-05-10T10:45:22.181Z,89.32
2023-05-10T10:47:49.269Z,89.17
2023-05-10T10:50:17.291Z,89.59
2023-05-10T10:52:45.171Z,89.10
2023-05-10T10:55:20.026Z,88.80
2023-05-10T10:57:52.880Z,88.45
2023-05-10T11:00:41.014Z,87.09
2023-05-10T11:03:18.305Z,85.11
2023-05-10T11:05:58.960Z,85.56
2023-05-10T11:08:30.692Z,85.11
2023-05-10T11:11:00.147Z,83.56
2023-05-10T11:13:35.149Z,85.39
2023-05-10T11:16:14.947Z,84.24
2023-05-10T11:18:52.539Z,83.92
2023-05-10T11:21:19.287Z,84.71
2023-05-10T11:23:45.844Z,84.30
2023-05-10T11:26:12.992Z,85.16
2023-05-10T11:28:47.510Z,84.28
2023-05-10T11:31:16.179Z,81.50
2023-05-10T11:33:48.092Z,82.57
2023-05-10T11:36:20.339Z,80.44
2023-05-10T11:38:48.283Z,82.16
2023-05-10T11:41:14.816Z,82.59
2023-05-10T11:43:42.390Z,82.49
2023-05-10T11:46:12.188Z,80.12
2023-05-10T11:48:43.266Z,79.25
2023-05-10T11:51:11.476Z,80.24
2023-05-10T11:53:39.108Z,81.00
2023-05-10T11:56:10.685Z,79.98
2023-05-10T11:58:39.422Z,78.39
2023-05-10T12:01:07.649Z,78.85
2023-05-10T12:03:35.294Z,78.95
2023-05-10T12:06:03.533Z,78.29
2023-05-10T12:08:31.923Z,78.36
2023-05-10T12:11:07.683Z,77.53
2023-05-10T12:13:39.076Z,78.30
2023-05-10T12:16:16.954Z,78.36
2023-05-10T12:18:43.782Z,79.90
2023-05-10T12:21:12.703Z,78.50
2023-05-10T12:23:40.574Z,78.68
2023-05-10T12:26:07.445Z,78.70
2023-05-10T12:28:34.672Z,79.90
2023-05-10T12:31:03.661Z,79.17
2023-05-10T12:33:50.268Z,75.65
2023-05-10T12:36:17.765Z,73.26
2023-05-10T12:38:49.063Z,70.21
2023-05-10T12:41:17.874Z,68.95
2023-05-10T12:43:45.057Z,68.82
2023-05-10T12:46:14.410Z,69.84
2023-05-10T12:48:42.385Z,71.41
2023-05-10T12:51:10.539Z,68.04
2023-05-10T12:53:37.787Z,67.97
2023-05-10T12:56:04.825Z,64.35
2023-05-10T12:58:35.862Z,64.89
2023-05-10T13:01:03.525Z,64.70
2023-05-10T13:03:30.352Z,63.12
2023-05-10T13:05:57.294Z,59.48
2023-05-10T13:08:23.984Z,58.78
2023-05-10T13:10:50.741Z,57.95
2023-05-10T13:13:17.520Z,57.00
2023-05-10T13:15:44.213Z,52.55
2023-05-10T13:18:11.135Z,51.54
2023-05-10T13:20:37.939Z,54.46
2023-05-10T13:23:04.669Z,58.20
2023-05-10T13:25:31.752Z,59.44
2023-05-10T13:27:58.475Z,60.36
2023-05-10T13:30:25.137Z,62.07
2023-05-10T13:32:51.891Z,62.85
2023-05-10T13:35:19.011Z,63.07
2023-05-10T13:37:45.698Z,61.20
2023-05-10T13:40:12.640Z,62.21
2023-05-10T13:42:39.387Z,62.25
2023-05-10T13:45:06.901Z,63.59
2023-05-10T13:47:33.873Z,65.61
2023-05-10T13:50:00.552Z,66.08
2023-05-10T13:52:27.635Z,66.69
2023-05-10T13:54:56.259Z,66.20
2023-05-10T13:57:24.930Z,64.51
2023-05-10T13:59:51.834Z,63.94
2023-05-10T14:02:18.592Z,61.70
2023-05-10T14:04:45.342Z,61.00
2023-05-10T14:07:12.067Z,60.20
2023-05-10T14:09:38.725Z,60.67
2023-05-10T14:12:05.503Z,60.90
2023-05-10T14:14:32.212Z,58.21
2023-05-10T14:17:00.345Z,59.39
2023-05-10T14:19:28.145Z,60.76
2023-05-10T14:21:54.756Z,60.59
2023-05-10T14:24:21.418Z,58.14
2023-05-10T14:26:48.180Z,58.39
2023-05-10T14:29:14.813Z,58.42
2023-05-10T14:31:41.722Z,58.22
2023-05-10T14:34:08.449Z,59.74
2023-05-10T14:36:35.106Z,59.06
2023-05-10T14:39:01.840Z,59.64
2023-05-10T14:41:28.611Z,59.98
2023-05-10T14:43:55.276Z,59.96
2023-05-10T14:46:21.991Z,59.35
2023-05-10T14:48:48.741Z,57.59
2023-05-10T14:51:15.390Z,58.69
2023-05-10T14:53:42.086Z,59.85
2023-05-10T14:56:08.767Z,60.02
2023-05-10T14:58:35.486Z,61.39
2023-05-10T15:01:02.339Z,62.04
2023-05-10T15:03:29.806Z,64.04
2023-05-10T15:05:58.647Z,60.71
2023-05-10T15:08:25.709Z,57.62
2023-05-10T15:10:52.773Z,59.84
2023-05-10T15:13:19.419Z,62.67
2023-05-10T15:15:46.147Z,63.87
2023-05-10T15:18:12.913Z,66.36
2023-05-10T15:20:39.631Z,67.40
2023-05-10T15:23:06.348Z,69.04
2023-05-10T15:25:35.830Z,70.63
2023-05-10T15:28:03.667Z,73.17
2023-05-10T15:30:30.379Z,73.21
2023-05-10T15:32:57.792Z,71.22
2023-05-10T15:35:24.782Z,70.74
2023-05-10T15:37:51.539Z,69.44
2023-05-10T15:40:18.390Z,69.38
2023-05-10T15:42:45.326Z,68.91
2023-05-10T15:45:12.854Z,68.28
2023-05-10T15:47:40.569Z,68.15
2023-05-10T15:50:07.634Z,68.60
2023-05-10T15:52:34.647Z,67.61
2023-05-10T15:55:01.352Z,68.89
2023-05-10T15:57:28.043Z,70.96
2023-05-10T15:59:54.750Z,72.24
2023-05-10T16:02:22.632Z,72.35
2023-05-10T16:04:49.766Z,72.08
2023-05-10T16:07:16.400Z,72.83
2023-05-10T16:09:43.137Z,72.45
2023-05-10T16:12:09.924Z,73.04
2023-05-10T16:14:36.636Z,73.37
2023-05-10T16:17:04.660Z,73.00
2023-05-10T16:19:31.707Z,72.42
2023-05-10T16:21:58.458Z,73.13
2023-05-10T16:24:26.241Z,74.36
2023-05-10T16:26:52.976Z,73.64
2023-05-10T16:29:19.692Z,73.19
2023-05-10T16:31:46.387Z,72.70
2023-05-10T16:34:13.170Z,73.00
2023-05-10T16:36:39.828Z,73.46
2023-05-10T16:39:06.796Z,74.92
2023-05-10T16:41:34.392Z,76.28
2023-05-10T16:44:01.686Z,76.95
2023-05-10T16:46:28.542Z,77.84
2023-05-10T16:48:56.039Z,78.47
2023-05-10T16:51:22.825Z,78.37
2023-05-10T16:53:49.826Z,78.52
2023-05-10T16:56:18.432Z,78.67
2023-05-10T16:58:47.568Z,79.15
2023-05-10T17:01:14.228Z,79.80
2023-05-10T17:03:41.526Z,80.49
2023-05-10T17:06:08.793Z,81.74
2023-05-10T17:08:35.693Z,82.04
2023-05-10T17:11:03.897Z,82.82
2023-05-10T17:13:31.933Z,83.55
2023-05-10T17:15:58.762Z,82.76
2023-05-10T17:18:26.690Z,83.48
2023-05-10T17:20:53.346Z,81.96
2023-05-10T17:23:20.083Z,81.98
2023-05-10T17:25:46.784Z,82.34
2023-05-10T17:28:13.415Z,83.53
2023-05-10T17:30:40.280Z,84.56
2023-05-10T17:33:06.951Z,84.13
2023-05-10T17:35:34.120Z,84.51
2023-05-10T17:38:00.974Z,85.06
2023-05-10T17:40:27.757Z,85.18
2023-05-10T17:42:54.503Z,86.19
2023-05-10T17:45:21.249Z,85.44
2023-05-10T17:47:48.019Z,84.13
2023-05-10T17:50:14.856Z,84.20
2023-05-10T17:52:41.528Z,85.36
2023-05-10T17:55:08.693Z,85.57
2023-05-10T17:57:38.055Z,85.11
2023-05-10T18:00:06.583Z,85.59
2023-05-10T18:02:33.319Z,86.21
2023-05-10T18:05:01.412Z,85.33
2023-05-10T18:07:30.063Z,85.17
2023-05-10T18:09:58.075Z,85.19
2023-05-10T18:12:24.638Z,84.60
2023-05-10T18:14:51.664Z,85.29
2023-05-10T18:17:18.437Z,85.77
2023-05-10T18:19:45.123Z,85.23
2023-05-10T18:22:11.807Z,85.77
2023-05-10T18:24:39.899Z,86.03
2023-05-10T18:27:08.766Z,86.06
2023-05-10T18:29:36.242Z,86.77
2023-05-10T18:32:03.081Z,87.71
2023-05-10T18:34:29.705Z,88.95
2023-05-10T18:36:56.654Z,89.24
2023-05-10T18:39:24.347Z,89.12
2023-05-10T18:41:51.212Z,88.77
2023-05-10T18:44:19.107Z,89.38
2023-05-10T18:46:46.445Z,89.45
2023-05-10T18:49:13.325Z,89.15
2023-05-10T18:51:40.143Z,89.24
2023-05-10T18:54:07.347Z,89.45
2023-05-10T18:56:34.021Z,88.96
2023-05-10T18:59:00.809Z,88.97
2023-05-10T19:01:27.578Z,88.23
2023-05-10T19:03:54.234Z,88.72
2023-05-10T19:06:21.008Z,88.54
2023-05-10T19:08:47.618Z,89.22
2023-05-10T19:11:14.254Z,89.07
2023-05-10T19:13:40.945Z,90.03
2023-05-10T19:16:14.325Z,89.98
2023-05-10T19:18:41.229Z,89.75
2023-05-10T19:21:10.451Z,89.51
2023-05-10T19:23:40.360Z,89.70
2023-05-10T19:26:09.965Z,90.26
2023-05-10T19:28:37.826Z,90.97
2023-05-10T19:31:04.563Z,91.80
2023-05-10T19:33:31.662Z,92.55
2023-05-10T19:35:58.403Z,92.95
2023-05-10T19:38:25.909Z,93.25
2023-05-10T19:40:58.320Z,93.45
2023-05-10T19:43:29.582Z,93.73
2023-05-10T19:46:02.193Z,94.30
2023-05-10T19:48:29.251Z,94.01
2023-05-10T19:51:03.682Z,93.44
2023-05-10T19:53:31.632Z,93.82
2023-05-10T19:56:04.807Z,94.26
2023-05-10T19:58:31.534Z,94.30
2023-05-10T20:00:58.200Z,94.01
2023-05-10T20:03:25.115Z,93.78
2023-05-10T20:05:52.086Z,94.13
2023-05-10T20:08:18.837Z,94.54
2023-05-10T20:10:45.908Z,94.65
2023-05-10T20:13:12.692Z,94.64
2023-05-10T20:15:39.386Z,95.07
2023-05-10T20:18:06.220Z,94.97
2023-05-10T20:20:32.908Z,95.88
2023-05-10T20:22:59.602Z,96.66
2023-05-10T20:25:26.361Z,97.28
2023-05-10T20:27:53.168Z,97.13
2023-05-10T20:30:20.226Z,96.98
2023-05-10T20:32:47.313Z,97.56
2023-05-10T20:35:13.994Z,97.73
2023-05-10T20:37:40.794Z,97.18
2023-05-10T20:40:08.013Z,98.13
2023-05-10T20:42:34.670Z,98.15
2023-05-10T20:45:01.355Z,98.57
2023-05-10T20:47:28.145Z,99.03
2023-05-10T20:49:54.834Z,100.00
2023-05-10T20:52:23.354Z,99.93
2023-05-10T20:54:51.165Z,100.00
2023-05-10T20:57:17.899Z,100.00
2023-05-10T20:59:44.566Z,100.00
2023-05-10T21:02:11.247Z,100.00
2023-05-10T21:04:38.404Z,100.00
2023-05-10T21:07:05.119Z,100.00
2023-05-10T21:09:31.863Z,100.00
2023-05-10T21:11:58.605Z,100.00
2023-05-10T21:14:25.614Z,100.00
2023-05-10T21:16:52.449Z,100.00
2023-05-10T21:19:19.297Z,100.00
2023-05-10T21:21:46.049Z,100.00
2023-05-10T21:24:12.746Z,100.00
2023-05-10T21:26:39.710Z,100.00
2023-05-10T21:29:06.942Z,100.00
2023-05-10T21:31:33.738Z,100.00
2023-05-10T21:34:01.013Z,100.00
2023-05-10T21:36:27.979Z,100.00
2023-05-10T21:38:54.778Z,100.00
2023-05-10T21:41:21.843Z,100.00
2023-05-10T21:43:48.597Z,100.00
2023-05-10T21:46:15.424Z,100.00
2023-05-10T21:48:42.143Z,100.00
2023-05-10T21:51:09.269Z,100.00
2023-05-10T21:53:37.574Z,100.00
2023-05-10T21:56:04.650Z,100.00
2023-05-10T21:58:31.421Z,100.00
2023-05-10T22:00:58.097Z,100.00
2023-05-10T22:03:24.939Z,100.00
2023-05-10T22:05:51.669Z,100.00
2023-05-10T22:08:18.388Z,100.00
2023-05-10T22:10:45.033Z,100.00
2023-05-10T22:13:11.695Z,100.00
2023-05-10T22:15:38.488Z,100.00
2023-05-10T22:18:05.621Z,100.00
2023-05-10T22:20:32.648Z,100.00
2023-05-10T22:22:59.518Z,100.00
2023-05-10T22:25:26.153Z,100.00
2023-05-10T22:27:52.815Z,100.00
2023-05-10T22:30:20.252Z,100.00
2023-05-10T22:32:47.228Z,100.00
2023-05-10T22:35:13.889Z,100.00
2023-05-10T22:37:40.590Z,100.00
2023-05-10T22:40:07.878Z,100.00
2023-05-10T22:42:34.547Z,100.00
2023-05-10T22:45:01.324Z,100.00
2023-05-10T22:47:28.064Z,100.00
2023-05-10T22:49:55.600Z,100.00
2023-05-10T22:52:22.281Z,100.00
2023-05-10T22:54:48.993Z,100.00
2023-05-10T22:57:16.396Z,100.00
2023-05-10T22:59:43.391Z,100.00
2023-05-10T23:02:10.203Z,100.00
2023-05-10T23:04:37.152Z,100.00
2023-05-10T23:07:03.849Z,100.00
2023-05-10T23:09:30.481Z,100.00
2023-05-10T23:11:57.478Z,100.00
2023-05-10T23:14:24.157Z,100.00
2023-05-10T23:16:51.166Z,100.00
2023-05-10T23:19:17.840Z,100.00
2023-05-10T23:21:44.520Z,100.00
2023-05-10T23:24:11.683Z,100.00
2023-05-10T23:26:38.387Z,100.00
2023-05-10T23:29:05.066Z,100.00
2023-05-10T23:31:31.784Z,100.00
2023-05-10T23:33:58.475Z,100.00
2023-05-10T23:36:25.162Z,100.00
2023-05-10T23:38:51.766Z,100.00
2023-05-10T23:41:18.893Z,100.00
2023-05-10T23:43:45.595Z,100.00
2023-05-10T23:46:12.358Z,100.00
2023-05-10T23:48:39.070Z,100.00
2023-05-10T23:51:05.791Z,100.00
2023-05-10T23:53:32.476Z,100.00
2023-05-10T23:55:59.192Z,100.00
2023-05-10T23:58:25.861Z,100.00
